Time;durP1;ratioP1;P1;durP2;ratioP2;P2;SDS_P1;SDS_P2;PMS_P1;PMS_P2;Temp;Humidity;BMP_temperature;BMP_pressure;BME280_temperature;BME280_humidity;BME280_pressure;Samples;Min_cycle;Max_cycle;Signal;HPM_P1;HPM_P2
2022/04/19 00:01:37;;;;;;;3.47;2.37;;;5.70;99.90;;;;;;5020245;28;20194;-78
2022/04/19 00:04:03;;;;;;;2.67;2.27;;;5.80;99.90;;;;;;5036848;28;20209;-79
2022/04/19 00:06:28;;;;;;;2.93;2.40;;;5.70;99.90;;;;;;5036953;28;20186;-78
2022/04/19 00:08:54;;;;;;;3.20;2.70;;;5.60;99.90;;;;;;5036723;28;20197;-78
2022/04/19 00:11:20;;;;;;;3.10;2.63;;;5.60;99.90;;;;;;5019948;28;20358;-79
2022/04/19 00:13:45;;;;;;;4.63;2.73;;;5.60;99.90;;;;;;5019990;28;20185;-78
2022/04/19 00:16:11;;;;;;;3.07;2.70;;;5.60;99.90;;;;;;5020185;28;20174;-78
2022/04/19 00:18:36;;;;;;;3.03;2.50;;;5.60;99.90;;;;;;5053442;28;20212;-79
2022/04/19 00:21:03;;;;;;;2.60;2.30;;;5.60;99.90;;;;;;5020525;28;20568;-78
2022/04/19 00:23:28;;;;;;;2.80;2.30;;;5.60;99.90;;;;;;5054792;28;20613;-78
2022/04/19 00:25:54;;;;;;;3.37;2.57;;;5.60;99.90;;;;;;5053112;28;20212;-78
2022/04/19 00:28:20;;;;;;;3.17;2.47;;;5.60;99.90;;;;;;5036787;28;20206;-79
2022/04/19 00:30:48;;;;;;;3.77;2.60;;;5.60;99.90;;;;;;5036448;28;20640;-78
2022/04/19 00:33:15;;;;;;;3.03;2.70;;;5.60;99.90;;;;;;5020691;28;20174;-78
2022/04/19 00:35:40;;;;;;;3.13;2.30;;;5.60;99.90;;;;;;5052722;28;20178;-79
2022/04/19 00:38:07;;;;;;;3.20;2.60;;;;;;;;;;5052774;28;20195;-78
2022/04/19 00:40:33;;;;;;;4.07;2.70;;;;;;;;;;5053254;28;20170;-78
2022/04/19 00:42:59;;;;;;;2.80;2.50;;;;;;;;;;5052992;28;20238;-77
2022/04/19 00:45:26;;;;;;;4.70;3.07;;;;;;;;;;5053134;28;20180;-78
2022/04/19 00:47:52;;;;;;;3.07;2.20;;;;;;;;;;5052985;28;20194;-78
2022/04/19 00:50:19;;;;;;;2.80;2.40;;;;;;;;;;5036168;28;20189;-79
2022/04/19 00:52:45;;;;;;;2.97;2.63;;;;;;;;;;5052367;28;20214;-78
2022/04/19 00:55:11;;;;;;;3.40;2.70;;;;;;;;;;5036162;28;20188;-78
2022/04/19 00:57:38;;;;;;;3.90;2.87;;;;;;;;;;5053178;28;20296;-78
2022/04/19 01:00:08;;;;;;;4.00;2.83;;;;;;;;;;5036019;28;20220;-78
2022/04/19 01:02:35;;;;;;;3.13;2.47;;;;;;;;;;5052633;28;20184;-78
2022/04/19 01:05:01;;;;;;;3.97;2.63;;;;;;;;;;5036122;28;20239;-79
2022/04/19 01:07:27;;;;;;;3.37;2.40;;;;;;;;;;5052567;28;20194;-78
2022/04/19 01:09:53;;;;;;;2.83;2.30;;;;;;;;;;5036719;28;20192;-78
2022/04/19 01:15:05;;;;;;;3.60;2.60;;;;;;;;;;5053246;28;20181;-78
2022/04/19 01:17:33;;;;;;;2.33;2.13;;;;;;;;;;5052507;28;20247;-78
2022/04/19 01:20:00;;;;;;;2.90;2.60;;;;;;;;;;5036283;28;20181;-78
2022/04/19 01:22:26;;;;;;;3.83;2.70;;;;;;;;;;5036030;28;20193;-78
2022/04/19 01:24:52;;;;;;;3.43;2.80;;;;;;;;;;5035942;28;20186;-79
2022/04/19 01:27:18;;;;;;;4.07;2.90;;;;;;;;;;5036032;28;20201;-78
2022/04/19 01:29:45;;;;;;;2.70;2.40;;;;;;;;;;5035934;28;20564;-78
2022/04/19 01:32:13;;;;;;;2.83;2.40;;;;;;;;;;5052457;28;20201;-78
2022/04/19 01:34:39;;;;;;;3.47;2.90;;;;;;;;;;5052334;28;20180;-78
2022/04/19 01:37:05;;;;;;;3.27;2.50;;;;;;;;;;5052304;28;20174;-78
2022/04/19 01:42:16;;;;;;;3.10;2.60;;;;;;;;;;5053393;28;20292;-79
2022/04/19 01:44:42;;;;;;;3.00;2.60;;;;;;;;;;5038753;28;20206;-78
2022/04/19 01:47:08;;;;;;;3.20;2.60;;;;;;;;;;5039643;28;20210;-79
2022/04/19 01:49:37;;;;;;;2.80;2.40;;;;;;;;;;5039769;28;20250;-78
2022/04/19 01:52:04;;;;;;;3.10;2.60;;;;;;;;;;5039353;28;20710;-78
2022/04/19 01:54:30;;;;;;;2.83;2.60;;;;;;;;;;5056439;28;20174;-78
2022/04/19 01:56:57;;;;;;;3.60;2.67;;;;;;;;;;5056179;28;20263;-79
2022/04/19 01:59:23;;;;;;;4.67;2.93;;;;;;;;;;5055927;28;20246;-78
2022/04/19 02:01:49;;;;;;;3.87;2.80;;;;;;;;;;5056019;28;20325;-78
2022/04/19 02:04:15;;;;;;;3.87;2.50;;;;;;;;;;5039488;28;20187;-78
2022/04/19 02:06:42;;;;;;;3.17;2.70;;;;;;;;;;5056034;28;20181;-78
2022/04/19 02:09:08;;;;;;;2.87;2.43;;;;;;;;;;5055645;28;20199;-78
2022/04/19 02:11:34;;;;;;;3.50;2.80;;;;;;;;;;5039006;28;20668;-78
2022/04/19 02:14:00;;;;;;;4.43;2.93;;;;;;;;;;5038933;28;20201;-78
2022/04/19 02:16:26;;;;;;;3.37;2.63;;;;;;;;;;5056941;28;20178;-78
2022/04/19 02:18:52;;;;;;;3.40;3.00;;;;;;;;;;5055333;28;20256;-78
2022/04/19 02:21:18;;;;;;;3.53;2.87;;;;;;;;;;5039178;28;20192;-78
2022/04/19 02:23:44;;;;;;;4.20;2.80;;;;;;;;;;5039071;28;20182;-78
2022/04/19 02:26:10;;;;;;;4.23;2.90;;;;;;;;;;5055354;28;20205;-78
2022/04/19 02:28:37;;;;;;;3.20;2.80;;;;;;;;;;5038708;28;20202;-78
2022/04/19 02:31:03;;;;;;;3.40;2.80;;;;;;;;;;5039049;28;20242;-78
2022/04/19 02:33:29;;;;;;;3.23;2.90;;;;;;;;;;5054897;28;20588;-78
2022/04/19 02:35:55;;;;;;;4.13;2.80;;;;;;;;;;5038590;28;20181;-78
2022/04/19 02:38:22;;;;;;;3.90;3.00;;;;;;;;;;5054976;28;20196;-78
2022/04/19 02:40:48;;;;;;;4.27;2.90;;;;;;;;;;5038465;28;20224;-78
2022/04/19 02:43:14;;;;;;;3.77;2.90;;;;;;;;;;5054136;28;20173;-78
2022/04/19 02:45:41;;;;;;;3.73;2.83;;;;;;;;;;5038450;28;20178;-78
2022/04/19 02:48:08;;;;;;;2.97;2.67;;;;;;;;;;5054781;28;20252;-78
2022/04/19 02:50:40;;;;;;;4.40;3.20;;;;;;;;;;5038397;28;20177;-78
2022/04/19 02:53:06;;;;;;;3.20;2.60;;;;;;;;;;5054587;28;20296;-78
2022/04/19 02:55:32;;;;;;;3.40;2.80;;;;;;;;;;5036544;28;20641;-78
2022/04/19 02:57:58;;;;;;;4.73;2.90;;;;;;;;;;5038115;28;20216;-78
2022/04/19 03:00:24;;;;;;;3.57;2.70;;;;;;;;;;5038173;28;20636;-78
2022/04/19 03:02:51;;;;;;;4.03;3.30;;;;;;;;;;5037756;28;20185;-78
2022/04/19 03:05:18;;;;;;;3.30;2.90;;;;;;;;;;5054584;28;20238;-78
2022/04/19 03:07:44;;;;;;;3.53;3.00;;;;;;;;;;5037895;28;20205;-78
2022/04/19 03:10:10;;;;;;;3.23;2.93;;;;;;;;;;5054183;28;20206;-78
2022/04/19 03:12:36;;;;;;;3.73;3.00;;;;;;;;;;5037093;28;20235;-78
2022/04/19 03:15:02;;;;;;;3.73;3.03;;;;;;;;;;5037580;28;20545;-78
2022/04/19 03:17:28;;;;;;;3.93;3.17;;;;;;;;;;5053731;28;20197;-78
2022/04/19 03:19:54;;;;;;;4.63;3.07;;;;;;;;;;5054021;28;20255;-78
2022/04/19 03:22:20;;;;;;;3.47;2.93;;;;;;;;;;5037118;28;20216;-78
2022/04/19 03:27:42;;;;;;;3.73;3.10;;;;;;;;;;5054032;28;20257;-78
2022/04/19 03:30:15;;;;;;;3.93;2.90;;;;;;;;;;5038821;28;20207;-78
2022/04/19 03:32:44;;;;;;;3.97;3.20;;;;;;;;;;5053352;28;20342;-78
2022/04/19 03:35:11;;;;;;;4.10;3.33;;;;;;;;;;5053753;28;20725;-78
2022/04/19 03:37:41;;;;;;;4.17;3.20;;;;;;;;;;5053315;28;20200;-78
2022/04/19 03:40:07;;;;;;;3.63;3.23;;;;;;;;;;5037388;28;20181;-78
2022/04/19 03:42:33;;;;;;;3.83;3.10;;;;;;;;;;5053007;28;20189;-78
2022/04/19 03:44:59;;;;;;;4.73;3.40;;;;;;;;;;5036624;28;20246;-78
2022/04/19 03:47:25;;;;;;;3.93;3.23;;;;;;;;;;5053001;28;20202;-78
2022/04/19 03:49:51;;;;;;;3.83;3.03;;;;;;;;;;5053060;28;20229;-78
2022/04/19 03:52:17;;;;;;;4.57;3.47;;;;;;;;;;5052987;28;20208;-78
2022/04/19 03:54:43;;;;;;;3.73;3.10;;;;;;;;;;5036920;28;20185;-78
2022/04/19 03:57:10;;;;;;;4.23;3.20;;;;;;;;;;5035975;28;20288;-78
2022/04/19 03:59:38;;;;;;;4.13;3.23;;;;;;;;;;5036691;28;20204;-78
2022/04/19 04:02:04;;;;;;;4.33;3.27;;;;;;;;;;5037139;28;20184;-78
2022/04/19 04:04:31;;;;;;;3.60;3.13;;;;;;;;;;5053269;28;20674;-78
2022/04/19 04:07:00;;;;;;;4.43;3.30;;;;;;;;;;5036267;28;20581;-78
2022/04/19 04:09:32;;;;;;;5.23;3.37;;;;;;;;;;5053464;28;20258;-78
2022/04/19 04:11:58;;;;;;;4.70;3.27;;;;;;;;;;5053012;28;20208;-78
2022/04/19 04:14:24;;;;;;;3.90;3.23;;;;;;;;;;5036692;28;20180;-78
2022/04/19 04:16:50;;;;;;;3.97;3.13;;;;;;;;;;5036703;28;20180;-78
2022/04/19 04:19:16;;;;;;;6.23;3.50;;;;;;;;;;5036798;28;20176;-78
2022/04/19 04:21:42;;;;;;;3.50;3.10;;;;;;;;;;5036352;28;20191;-78
2022/04/19 04:24:08;;;;;;;3.97;3.30;;;;;;;;;;5036166;28;20309;-78
2022/04/19 04:26:34;;;;;;;3.67;3.23;;;;;;;;;;5036601;28;20289;-78
2022/04/19 04:29:00;;;;;;;4.60;3.43;;;;;;;;;;5036365;28;20252;-78
2022/04/19 04:31:26;;;;;;;3.63;3.20;;;;;;;;;;5052533;28;20233;-78
2022/04/19 04:33:52;;;;;;;3.80;3.00;;;;;;;;;;5054069;28;20223;-78
2022/04/19 04:36:19;;;;;;;4.00;3.33;;;;;;;;;;5052755;28;20222;-78
2022/04/19 04:38:45;;;;;;;4.40;3.27;;;;;;;;;;5053007;28;20196;-78
2022/04/19 04:41:11;;;;;;;6.60;3.93;;;;;;;;;;5036120;28;20180;-78
2022/04/19 04:43:39;;;;;;;4.30;3.37;;;;;;;;;;5036343;28;20185;-78
2022/04/19 04:49:35;;;;;;;4.97;3.23;;;;;;;;;;5054119;28;20203;-78
2022/04/19 04:51:36;;;;;;;4.70;3.17;;;;;;;;;;5042769;28;20208;-78
2022/04/19 04:54:02;;;;;;;4.23;3.80;;;;;;;;;;5052354;28;20522;-78
2022/04/19 04:56:28;;;;;;;4.57;3.40;;;;;;;;;;5052142;28;20183;-78
2022/04/19 04:58:54;;;;;;;4.00;3.40;;;;;;;;;;5053500;28;20212;-78
2022/04/19 05:01:20;;;;;;;4.73;3.10;;;;;;;;;;5052348;28;20179;-78
2022/04/19 05:03:47;;;;;;;4.60;3.27;;;;;;;;;;5035421;28;20180;-75
2022/04/19 05:06:13;;;;;;;4.63;3.80;;;;;;;;;;5051753;28;20176;-76
2022/04/19 05:08:39;;;;;;;4.63;3.33;;;;;;;;;;5051587;28;20740;-76
2022/04/19 05:11:05;;;;;;;4.57;3.30;;;;;;;;;;5034778;28;20545;-76
2022/04/19 05:13:31;;;;;;;4.10;3.17;;;;;;;;;;5051409;28;20182;-75
2022/04/19 05:16:00;;;;;;;3.80;3.20;;;;;;;;;;5035370;28;20172;-75
2022/04/19 05:18:26;;;;;;;4.00;3.30;;;;;;;;;;5034579;28;20188;-76
2022/04/19 05:20:52;;;;;;;5.83;3.57;;;;;;;;;;5051752;28;20172;-76
2022/04/19 05:23:19;;;;;;;4.27;3.50;;;;;;;;;;5052424;28;20259;-76
2022/04/19 05:25:45;;;;;;;5.80;3.30;;;;;;;;;;5051320;28;20180;-76
2022/04/19 05:28:11;;;;;;;4.93;3.80;;;;;;;;;;5034682;28;20262;-76
2022/04/19 05:30:37;;;;;;;5.23;3.47;;;;;;;;;;5051597;28;20543;-76
2022/04/19 05:33:03;;;;;;;3.87;3.40;;;;;;;;;;5034377;28;20611;-76
2022/04/19 05:35:29;;;;;;;4.03;3.30;;;;;;;;;;5052246;28;20184;-77
2022/04/19 05:37:55;;;;;;;4.00;3.60;;;;;;;;;;5035221;28;20196;-77
2022/04/19 05:40:22;;;;;;;6.97;3.17;;;;;;;;;;5035590;28;20246;-75
2022/04/19 05:42:48;;;;;;;5.17;3.30;;;;;;;;;;5034969;28;20185;-74
2022/04/19 05:45:14;;;;;;;3.23;2.77;;;;;;;;;;5051508;28;20219;-76
2022/04/19 05:47:40;;;;;;;4.60;3.20;;;;;;;;;;5051316;28;20337;-76
2022/04/19 05:50:07;;;;;;;3.80;3.13;;;;;;;;;;5051309;28;20188;-75
2022/04/19 05:52:33;;;;;;;4.90;3.20;;;;;;;;;;5051079;28;20287;-75
2022/04/19 05:54:59;;;;;;;4.33;3.73;;;;;;;;;;5051015;28;20178;-75
2022/04/19 05:57:25;;;;;;;4.53;3.53;;;;;;;;;;5034679;28;20213;-77
2022/04/19 05:59:51;;;;;;;4.73;3.57;;;;;;;;;;5034636;28;20548;-76
2022/04/19 06:05:01;;;;;;;6.60;4.00;;;;;;;;;;5051652;28;20250;-76
2022/04/19 06:07:29;;;;;;;5.80;4.10;;;;;;;;;;5034719;28;20224;-76
2022/04/19 06:09:55;;;;;;;7.43;3.90;;;;;;;;;;5052118;28;20176;-76
2022/04/19 06:12:22;;;;;;;4.83;4.00;;;;;;;;;;5050850;28;20629;-77
2022/04/19 06:14:48;;;;;;;4.87;3.87;;;;;;;;;;5051137;28;20178;-76
2022/04/19 06:17:14;;;;;;;7.03;4.33;;;;;;;;;;5034217;28;20224;-77
2022/04/19 06:19:41;;;;;;;5.33;4.30;;;;;;;;;;5052061;28;20170;-77
2022/04/19 06:22:07;;;;;;;5.33;4.20;;;;;;;;;;5050704;28;20185;-77
2022/04/19 06:24:33;;;;;;;4.77;3.93;;;;;;;;;;5034190;28;20185;-76
2022/04/19 06:26:59;;;;;;;5.83;4.20;;;;;;;;;;5034243;28;20246;-76
2022/04/19 06:29:25;;;;;;;5.20;3.93;;;;;;;;;;5051636;28;20181;-76
2022/04/19 06:31:51;;;;;;;5.83;4.30;;;;;;;;;;5037528;28;20212;-76
2022/04/19 06:34:17;;;;;;;5.77;4.23;;;;;;;;;;5037873;28;20658;-76
2022/04/19 06:36:44;;;;;;;5.93;4.53;;;;;;;;;;5038311;28;20184;-75
2022/04/19 06:39:10;;;;;;;5.80;4.60;;;;;;;;;;5054491;28;20193;-75
2022/04/19 06:41:41;;;;;;;6.73;4.17;;;;;;;;;;5055692;28;20173;-76
2022/04/19 06:44:08;;;;;;;5.67;4.23;;;;;;;;;;5038201;28;20242;-76
2022/04/19 06:46:36;;;;;;;5.10;4.60;;;;;;;;;;5054549;28;20269;-76
2022/04/19 06:49:03;;;;;;;5.20;4.33;;;;;;;;;;5054362;28;20208;-76
2022/04/19 06:51:30;;;;;;;4.93;4.43;;;;;;;;;;5054201;28;20211;-76
2022/04/19 06:53:57;;;;;;;5.77;4.67;;;;;;;;;;5055051;28;20526;-76
2022/04/19 06:56:23;;;;;;;5.53;4.33;;;;;;;;;;5053908;28;20537;-75
2022/04/19 06:58:50;;;;;;;7.27;4.70;;;;;;;;;;5078608;22;20902;-76
2022/04/19 07:01:16;;;;;;;7.00;4.27;;;;;;;;;;5040405;28;20199;-77
2022/04/19 07:03:42;;;;;;;5.07;4.13;;;;;;;;;;5039985;28;20638;-77
2022/04/19 07:06:08;;;;;;;5.60;4.37;;;;;;;;;;5056923;28;20174;-77
2022/04/19 07:08:34;;;;;;;5.07;4.30;;;;;;;;;;5039981;28;20675;-77
2022/04/19 07:11:01;;;;;;;6.17;4.37;;;;;;;;;;5056682;28;20185;-77
2022/04/19 07:13:27;;;;;;;6.20;5.30;;;;;;;;;;5056515;28;20236;-77
2022/04/19 07:15:53;;;;;;;6.00;4.60;;;;;;;;;;5056526;28;20215;-75
2022/04/19 07:18:23;;;;;;;7.53;4.83;;;;;;;;;;5039859;28;20721;-76
2022/04/19 07:29:03;;;;;;;7.00;4.73;;;;;;;;;;5074420;28;20691;-77
2022/04/19 07:31:31;;;;;;;5.13;4.37;;;;;;;;;;5039640;28;20364;-77
2022/04/19 07:33:57;;;;;;;6.47;4.50;;;;;;;;;;5056112;28;20216;-76
2022/04/19 07:36:23;;;;;;;5.73;4.80;;;;;;;;;;5056081;28;20663;-77
2022/04/19 07:38:50;;;;;;;6.20;4.80;;;;;;;;;;5056059;28;20224;-76
2022/04/19 07:41:17;;;;;;;4.83;4.20;;;;;;;;;;5038712;28;20175;-77
2022/04/19 07:43:44;;;;;;;4.77;3.80;;;;;;;;;;5039610;28;20248;-77
2022/04/19 07:46:11;;;;;;;6.87;4.63;;;;;;;;;;5039451;28;20657;-76
2022/04/19 07:48:38;;;;;;;6.77;4.30;;;;;;;;;;5056018;28;20635;-76
2022/04/19 07:51:04;;;;;;;5.20;4.20;;;;;;;;;;5073658;28;20553;-76
2022/04/19 07:53:30;;;;;;;7.20;4.20;;;;;;;;;;5055571;28;20206;-76
2022/04/19 07:55:57;;;;;;;5.57;4.40;;;;;;;;;;5056000;28;20180;-76
2022/04/19 07:58:24;;;;;;;5.70;4.40;;;;;;;;;;5073420;28;20215;-76
2022/04/19 08:00:50;;;;;;;7.77;4.90;;;;;;;;;;5055675;28;20182;-76
2022/04/19 08:03:16;;;;;;;4.50;3.87;;;;;;;;;;5055553;28;20215;-76
2022/04/19 08:05:42;;;;;;;4.70;4.20;;;;;;;;;;5055562;28;20177;-76
2022/04/19 08:08:09;;;;;;;4.67;4.13;;;;;;;;;;5055328;28;20639;-77
2022/04/19 08:10:35;;;;;;;6.10;4.60;;;;;;;;;;5055445;28;20181;-76
2022/04/19 08:13:01;;;;;;;6.43;4.70;;;;;;;;;;5055286;28;20215;-76
2022/04/19 08:15:27;;;;;;;6.60;4.57;;;;;;;;;;5073322;28;20173;-77
2022/04/19 08:17:53;;;;;;;6.33;4.10;;;;;;;;;;5055344;28;20193;-77
2022/04/19 08:20:19;;;;;;;4.37;3.83;;;;;;;;;;5055233;28;20599;-77
2022/04/19 08:22:45;;;;;;;5.30;4.50;;;;;;;;;;5055216;28;20213;-77
2022/04/19 08:25:11;;;;;;;5.77;4.10;;;;;;;;;;5038695;28;20599;-77
2022/04/19 08:27:40;;;;;;;4.60;4.03;;;;;;;;;;5038709;28;20206;-77
2022/04/19 08:30:08;;;;;;;4.70;4.07;;;;;;;;;;5038943;28;20281;-77
2022/04/19 08:32:34;;;;;;;5.90;3.90;;;;;;;;;;5055154;28;20199;-77
2022/04/19 08:35:00;;;;;;;4.43;3.57;;;;;;;;;;5038616;28;20184;-77
2022/04/19 08:37:30;;;;;;;6.17;3.50;;;;;;;;;;5038667;28;20212;-76
2022/04/19 08:39:56;;;;;;;6.37;3.10;;;;;;;;;;5055099;28;20181;-77
2022/04/19 08:42:37;;;;;;;4.10;3.43;;;;;;;;;;5054711;28;20173;-77
2022/04/19 08:45:04;;;;;;;5.30;3.60;;;;;;;;;;5038597;28;20196;-77
2022/04/19 08:47:31;;;;;;;4.40;3.13;;;;;;;;;;5055244;28;20201;-77
2022/04/19 08:50:00;;;;;;;3.10;2.80;;;;;;;;;;5054444;28;20266;-77
2022/04/19 08:52:26;;;;;;;3.13;2.70;;;;;;;;;;5038055;28;20204;-77
2022/04/19 08:57:39;;;;;;;4.13;2.90;;;;;;;;;;5072692;28;20567;-77
2022/04/19 09:00:06;;;;;;;5.27;3.40;;;;;;;;;;5054477;28;20199;-77
2022/04/19 09:02:33;;;;;;;6.80;3.20;;;;;;;;;;5037788;28;20646;-77
2022/04/19 09:05:12;;;;;;;3.73;3.00;;;;;;;;;;5054522;28;20307;-77
2022/04/19 09:07:39;;;;;;;5.17;3.30;;;;;;;;;;5054300;28;20232;-77
2022/04/19 09:10:06;;;;;;;3.53;3.23;;;;;;;;;;5054523;28;20173;-77
2022/04/19 09:12:32;;;;;;;3.53;3.10;;;;;;;;;;5054156;28;20287;-77
2022/04/19 09:15:00;;;;;;;3.50;3.17;;;;;;;;;;5037903;28;20175;-77
2022/04/19 09:17:34;;;;;;;4.30;3.07;;;;;;;;;;5038462;28;20193;-77
2022/04/19 09:20:09;;;;;;;4.93;3.13;;;;;;;;;;5072203;28;20214;-76
2022/04/19 09:22:36;;;;;;;5.13;3.00;;;;;;;;;;5071819;28;20222;-77
2022/04/19 09:25:15;;;;;;;4.10;3.50;;;;;;;;;;5054116;28;20183;-77
2022/04/19 09:27:42;;;;;;;3.33;2.77;;;15.20;99.90;;;;;;5071998;28;20188;-77
2022/04/19 09:30:29;;;;;;;3.83;2.90;;;15.20;99.90;;;;;;5038235;28;20188;-77
2022/04/19 09:33:18;;;;;;;3.33;2.93;;;15.40;99.90;;;;;;5021123;28;20232;-76
2022/04/19 09:35:48;;;;;;;5.50;2.73;;;15.40;99.90;;;;;;5054111;28;20223;-76
2022/04/19 09:38:14;;;;;;;3.33;2.73;;;15.30;99.90;;;;;;5072287;28;20200;-76
2022/04/19 09:40:43;;;;;;;3.43;2.67;;;15.40;99.90;;;;;;5054250;28;20181;-76
2022/04/19 09:43:12;;;;;;;2.83;2.60;;;15.50;99.90;;;;;;5053912;28;20180;-76
2022/04/19 09:45:58;;;;;;;2.97;2.50;;;15.60;99.90;;;;;;5038143;28;20555;-76
2022/04/19 09:48:25;;;;;;;2.40;2.20;;;15.90;99.90;;;;;;5053957;28;20564;-76
2022/04/19 09:50:57;;;;;;;3.43;2.17;;;15.70;99.90;;;;;;5053894;28;20173;-76
2022/04/19 09:53:25;;;;;;;2.50;1.80;;;15.60;99.90;;;;;;5037966;28;20215;-76
2022/04/19 09:55:53;;;;;;;2.10;1.90;;;15.50;99.60;;;;;;5071890;28;20756;-76
2022/04/19 09:58:20;;;;;;;3.10;2.27;;;15.50;99.40;;;;;;5037923;28;20219;-76
2022/04/19 10:00:47;;;;;;;2.40;2.03;;;15.60;99.90;;;;;;5053796;28;20632;-76
2022/04/19 10:08:39;;;;;;;2.27;2.00;;;15.90;98.60;;;;;;5076133;28;20686;-78
2022/04/19 10:11:05;;;;;;;3.00;2.17;;;15.80;99.30;;;;;;5057656;28;20521;-78
2022/04/19 10:13:33;;;;;;;2.70;2.17;;;16.10;98.70;;;;;;5075310;28;20247;-77
2022/04/19 10:16:00;;;;;;;4.03;2.10;;;16.50;99.20;;;;;;5041072;28;20177;-77
2022/04/19 10:18:25;;;;;;;3.93;2.27;;;16.70;98.70;;;;;;5041104;28;20200;-78
2022/04/19 10:20:53;;;;;;;2.47;2.17;;;16.90;97.80;;;;;;5041132;28;20176;-78
2022/04/19 10:23:19;;;;;;;3.20;2.20;;;16.70;96.00;;;;;;5057258;28;20260;-77
2022/04/19 10:25:46;;;;;;;3.93;2.40;;;16.50;97.40;;;;;;5024531;28;20207;-77
2022/04/19 10:28:26;;;;;;;3.20;1.80;;;16.60;97.50;;;;;;5057805;28;20276;-78
2022/04/19 10:30:53;;;;;;;2.57;1.90;;;16.80;97.60;;;;;;5057338;28;20168;-78
2022/04/19 10:33:53;;;;;;;2.83;2.13;;;16.80;94.80;;;;;;5074941;28;20216;-77
2022/04/19 10:36:20;;;;;;;2.23;1.87;;;16.70;94.70;;;;;;5057196;28;20644;-77
2022/04/19 10:39:08;;;;;;;2.10;1.83;;;16.90;96.70;;;;;;5057521;28;20192;-78
2022/04/19 10:41:53;;;;;;;2.87;2.00;;;17.30;95.00;;;;;;5043552;28;20188;-77
2022/04/19 10:44:52;;;;;;;2.83;2.60;;;17.30;95.20;;;;;;5057565;28;20673;-78
2022/04/19 10:47:20;;;;;;;2.73;2.10;;;17.80;94.40;;;;;;5043927;28;20254;-78
2022/04/19 10:50:06;;;;;;;2.70;2.40;;;17.90;93.60;;;;;;5040603;28;20173;-77
2022/04/19 10:52:40;;;;;;;2.30;2.10;;;18.00;92.30;;;;;;5040416;28;20201;-78
2022/04/19 10:55:07;;;;;;;2.93;2.73;;;18.30;96.20;;;;;;5074951;28;20160;-78
2022/04/19 10:58:06;;;;;;;4.13;2.47;;;18.70;93.20;;;;;;5040339;28;20262;-77
2022/04/19 11:00:34;;;;;;;2.80;2.60;;;18.60;93.60;;;;;;5043411;28;20180;-78
2022/04/19 11:03:01;;;;;;;2.60;2.40;;;18.70;93.60;;;;;;5074660;28;20671;-78
2022/04/19 11:05:46;;;;;;;2.80;2.47;;;18.80;91.50;;;;;;5056689;28;20181;-78
2022/04/19 11:08:29;;;;;;;3.43;2.60;;;18.60;91.10;;;;;;5056649;28;20689;-77
2022/04/19 11:10:55;;;;;;;2.73;2.20;;;18.50;92.50;;;;;;5056519;28;20200;-78
2022/04/19 11:13:28;;;;;;;4.07;2.30;;;18.60;93.70;;;;;;5056526;28;20243;-77
2022/04/19 11:15:57;;;;;;;3.00;2.50;;;18.80;90.40;;;;;;5073348;28;20203;-77
2022/04/19 11:18:30;;;;;;;2.60;2.20;;;18.80;90.20;;;;;;5074313;28;20221;-77
2022/04/19 11:21:07;;;;;;;3.00;2.20;;;18.40;89.20;;;;;;5056608;28;20169;-77
2022/04/19 11:23:50;;;;;;;3.70;2.30;;;18.60;90.50;;;;;;5039688;28;20204;-77
2022/04/19 11:26:33;;;;;;;2.53;2.17;;;18.60;90.50;;;;;;5023311;28;20246;-77
2022/04/19 11:29:11;;;;;;;2.90;2.10;;;18.40;87.80;;;;;;5056541;28;20224;-77
2022/04/19 11:31:45;;;;;;;2.20;2.00;;;18.30;90.70;;;;;;5056413;28;20196;-77
2022/04/19 11:34:16;;;;;;;2.50;2.10;;;17.70;87.80;;;;;;5056129;28;20260;-78
2022/04/19 11:36:43;;;;;;;1.93;1.73;;;17.60;89.30;;;;;;5039428;28;20177;-77
2022/04/19 11:46:43;;;;;;;2.17;1.90;;;17.70;89.90;;;;;;5073959;28;20185;-77
2022/04/19 11:47:50;;;;;;;2.20;1.80;;;17.60;83.20;;;;;;5058994;28;20196;-77
2022/04/19 11:50:31;;;;;;;4.27;2.10;;;17.90;88.00;;;;;;5073657;28;20192;-77
2022/04/19 11:52:57;;;;;;;2.23;1.90;;;18.00;85.70;;;;;;5055673;28;20273;-77
2022/04/19 11:55:25;;;;;;;2.10;1.90;;;18.40;87.30;;;;;;5055698;28;20225;-78
2022/04/19 11:58:05;;;;;;;2.37;1.90;;;17.90;84.40;;;;;;5073490;28;20204;-77
2022/04/19 12:00:31;;;;;;;4.10;2.30;;;18.20;84.60;;;;;;5055809;28;20168;-77
2022/04/19 12:03:03;;;;;;;2.23;1.87;;;18.50;87.00;;;;;;5039286;28;20188;-78
2022/04/19 12:05:32;;;;;;;2.10;1.90;;;19.00;82.50;;;;;;5056506;28;20639;-78
2022/04/19 12:07:58;;;;;;;2.27;1.87;;;19.00;83.20;;;;;;5055699;28;20223;-78
2022/04/19 12:10:24;;;;;;;2.23;1.90;;;19.20;84.50;;;;;;5039470;28;20188;-78
2022/04/19 12:12:50;;;;;;;2.80;1.87;;;18.90;80.50;;;;;;5038726;28;20205;-78
2022/04/19 12:15:39;;;;;;;2.50;1.97;;;18.90;81.00;;;;;;5038826;28;20184;-78
2022/04/19 12:18:05;;;;;;;2.50;2.10;;;18.90;82.10;;;;;;5055245;28;20196;-78
2022/04/19 12:20:44;;;;;;;2.10;1.80;;;19.00;81.40;;;;;;5022112;28;20181;-78
2022/04/19 12:23:20;;;;;;;1.87;1.50;;;19.30;80.40;;;;;;5055284;28;20233;-78
2022/04/19 12:26:04;;;;;;;2.97;1.83;;;19.90;79.50;;;;;;5038853;28;20184;-78
2022/04/19 12:28:46;;;;;;;2.80;1.70;;;20.20;73.90;;;;;;5072609;28;20189;-78
2022/04/19 12:31:32;;;;;;;2.30;1.87;;;20.40;73.90;;;;;;5054916;28;20211;-78
2022/04/19 12:33:59;;;;;;;1.67;1.57;;;20.50;73.70;;;;;;5038289;28;20180;-78
2022/04/19 12:36:26;;;;;;;3.13;1.63;;;20.10;72.20;;;;;;5038600;28;20181;-78
2022/04/19 12:39:04;;;;;;;2.77;1.50;;;20.10;73.30;;;;;;5055463;28;20192;-77
2022/04/19 12:41:40;;;;;;;1.40;1.30;;;19.90;70.80;;;;;;5022437;28;20181;-78
2022/04/19 12:44:08;;;;;;;1.50;1.27;;;19.90;70.40;;;;;;5054836;28;20181;-78
2022/04/19 12:46:42;;;;;;;1.43;1.00;;;20.00;69.80;;;;;;5038466;28;20180;-78
2022/04/19 12:49:21;;;;;;;0.80;0.80;;;20.10;66.70;;;;;;5038151;28;20196;-78
2022/04/19 12:52:07;;;;;;;1.13;0.90;;;20.70;68.90;;;;;;5054622;28;20271;-78
2022/04/19 12:54:38;;;;;;;2.70;0.60;;;20.70;62.70;;;;;;5054681;28;20173;-78
2022/04/19 12:57:10;;;;;;;0.60;0.43;;;20.40;60.10;;;;;;5038110;28;20195;-78
2022/04/19 12:59:36;;;;;;;0.63;0.60;;;20.30;60.00;;;;;;5044476;22;20312;-78
2022/04/19 13:02:02;;;;;;;0.60;0.50;;;20.20;59.10;;;;;;5034565;28;20265;-78
2022/04/19 13:04:28;;;;;;;0.70;0.53;;;20.00;55.40;;;;;;5018386;28;20178;-78
2022/04/19 13:12:26;;;;;;;0.40;0.40;;;20.80;53.10;;;;;;5037179;28;20244;-78
2022/04/19 13:14:54;;;;;;;0.80;0.60;;;20.20;50.70;;;;;;5018408;28;20178;-78
2022/04/19 13:17:21;;;;;;;0.53;0.43;;;20.30;52.00;;;;;;5034801;28;20256;-78
2022/04/19 13:19:47;;;;;;;1.20;0.70;;;20.40;49.20;;;;;;5001904;28;20221;-78
2022/04/19 13:22:13;;;;;;;1.07;0.50;;;20.60;50.50;;;;;;5052150;28;20213;-78
2022/04/19 13:24:40;;;;;;;0.60;0.60;;;21.00;49.50;;;;;;5052170;28;20219;-78
2022/04/19 13:27:06;;;;;;;1.30;0.70;;;20.90;49.10;;;;;;5034276;28;20374;-78
2022/04/19 13:29:36;;;;;;;0.50;0.50;;;21.00;49.80;;;;;;5017664;28;20737;-78
2022/04/19 13:32:01;;;;;;;0.70;0.70;;;20.60;47.00;;;;;;5051895;28;20656;-78
2022/04/19 13:34:28;;;;;;;0.60;0.60;;;20.20;45.20;;;;;;5034371;28;20237;-77
2022/04/19 13:36:56;;;;;;;0.90;0.87;;;19.90;47.30;;;;;;5017957;28;20169;-79
2022/04/19 13:39:22;;;;;;;0.87;0.80;;;20.00;49.20;;;;;;5017211;28;20198;-78
2022/04/19 13:41:48;;;;;;;1.07;0.93;;;19.90;46.70;;;;;;5017888;28;20181;-77
2022/04/19 13:44:13;;;;;;;0.90;0.90;;;19.90;46.80;;;;;;5001215;28;20181;-77
2022/04/19 13:46:42;;;;;;;0.90;0.90;;;20.00;47.00;;;;;;5017943;28;20177;-77
2022/04/19 13:49:08;;;;;;;1.00;0.80;;;19.50;46.40;;;;;;5017552;28;20201;-77
2022/04/19 13:51:35;;;;;;;1.10;1.00;;;19.80;49.70;;;;;;5017868;28;20235;-78
2022/04/19 13:54:02;;;;;;;3.93;1.17;;;20.40;51.00;;;;;;5033991;28;20162;-77
2022/04/19 13:56:29;;;;;;;1.53;1.27;;;20.50;47.50;;;;;;5035011;28;20648;-78
2022/04/19 13:58:55;;;;;;;2.13;1.40;;;21.00;51.00;;;;;;5035074;28;20558;-78
2022/04/19 14:01:21;;;;;;;1.63;1.43;;;21.20;47.20;;;;;;5019014;28;20178;-79
2022/04/19 14:03:47;;;;;;;3.30;1.47;;;21.30;46.70;;;;;;5019391;28;20203;-78
2022/04/19 14:06:13;;;;;;;1.83;1.42;;;20.90;47.30;;;;;;5018536;28;20177;-78
2022/04/19 14:08:38;;;;;;;1.73;1.50;;;21.00;49.30;;;;;;5017770;28;20606;-77
2022/04/19 14:11:05;;;;;;;2.03;1.50;;;20.80;47.80;;;;;;5001208;28;20260;-77
2022/04/19 14:13:32;;;;;;;1.80;1.70;;;20.40;47.40;;;;;;5017213;28;20209;-77
2022/04/19 14:15:58;;;;;;;1.50;1.40;;;20.70;47.40;;;;;;5033925;28;20564;-77
2022/04/19 14:18:23;;;;;;;3.17;1.80;;;20.50;48.80;;;;;;5017513;28;20194;-77
2022/04/19 14:20:50;;;;;;;1.57;1.47;;;20.60;49.40;;;;;;5017501;28;20307;-77
2022/04/19 14:23:16;;;;;;;1.40;1.30;;;19.90;48.50;;;;;;5000888;28;20201;-77
2022/04/19 14:25:42;;;;;;;1.53;1.40;;;19.80;48.40;;;;;;5017586;28;20177;-76
2022/04/19 14:28:08;;;;;;;1.67;1.40;;;20.00;49.40;;;;;;5017210;28;20255;-76
2022/04/19 14:33:21;;;;;;;2.07;1.20;;;20.00;49.70;;;;;;5022409;28;20224;-76
2022/04/19 14:35:48;;;;;;;1.63;1.30;;;20.70;48.70;;;;;;5017705;28;20714;-77
2022/04/19 14:38:15;;;;;;;1.65;1.50;;;20.80;46.90;;;;;;5033766;28;20190;-76
2022/04/19 14:40:42;;;;;;;1.53;1.23;;;20.50;47.10;;;;;;5017258;28;20174;-77
2022/04/19 14:43:07;;;;;;;1.60;1.30;;;21.00;50.30;;;;;;5016720;28;20285;-77
2022/04/19 14:45:33;;;;;;;1.23;1.13;;;21.50;47.00;;;;;;5017147;28;20732;-77